createdAt,value
2019-02-10T00:02:16.854Z,98034.73
2019-02-10T00:04:44.881Z,98032.81
2019-02-10T00:07:12.876Z,98028.15
2019-02-10T00:09:41.374Z,98013.91
2019-02-10T00:12:10.753Z,98008.27
2019-02-10T00:14:38.883Z,98010.53
2019-02-10T00:17:07.053Z,98013.91
2019-02-10T00:19:35.308Z,98013.27
2019-02-10T00:22:03.428Z,98011.36
2019-02-10T00:24:31.510Z,98013.20
2019-02-10T00:26:59.501Z,98012.37
2019-02-10T00:29:27.544Z,98001.69
2019-02-10T00:31:55.546Z,97991.35
2019-02-10T00:34:23.502Z,97993.53
2019-02-10T00:36:51.489Z,97986.69
2019-02-10T00:39:19.482Z,97981.58
2019-02-10T00:41:47.445Z,97978.49
2019-02-10T00:44:16.517Z,97976.08
2019-02-10T00:46:44.552Z,97961.82
2019-02-10T00:49:13.007Z,97958.61
2019-02-10T00:51:41.141Z,97967.42
2019-02-10T00:54:09.122Z,97971.34
2019-02-10T00:56:37.175Z,97974.55
2019-02-10T00:59:05.647Z,97966.15
2019-02-10T01:01:33.638Z,97951.70
2019-02-10T01:04:01.925Z,97945.36
2019-02-10T01:06:30.186Z,97943.17
2019-02-10T01:08:58.401Z,97932.02
2019-02-10T01:11:26.489Z,97932.61
2019-02-10T01:13:54.766Z,97934.05
2019-02-10T01:16:22.838Z,97938.52
2019-02-10T01:19:08.284Z,97935.77
2019-02-10T01:21:42.329Z,97939.02
2019-02-10T01:24:10.310Z,97935.57
2019-02-10T01:26:38.280Z,97936.45
2019-02-10T01:29:06.516Z,97926.49
2019-02-10T01:31:35.825Z,97919.38
2019-02-10T01:34:03.896Z,97917.36
2019-02-10T01:36:31.996Z,97907.86
2019-02-10T01:39:00.075Z,97911.02
2019-02-10T01:41:28.339Z,97906.30
2019-02-10T01:43:56.584Z,97899.16
2019-02-10T01:46:24.767Z,97904.77
2019-02-10T01:48:53.073Z,97890.61
2019-02-10T01:51:21.045Z,97890.80
2019-02-10T01:53:50.037Z,97886.09
2019-02-10T01:56:18.117Z,97872.38
2019-02-10T01:58:46.141Z,97867.69
2019-02-10T02:01:14.085Z,97859.03
2019-02-10T02:03:42.050Z,97858.49
2019-02-10T02:06:10.260Z,97854.55
2019-02-10T02:08:38.606Z,97839.03
2019-02-10T02:11:06.615Z,97833.55
2019-02-10T02:13:36.422Z,97827.42
2019-02-10T02:16:04.741Z,97827.22
2019-02-10T02:18:32.703Z,97819.14
2019-02-10T02:21:00.677Z,97806.53
2019-02-10T02:23:28.797Z,97801.70
2019-02-10T02:25:56.823Z,97788.55
2019-02-10T02:28:24.997Z,97786.53
2019-02-10T02:30:53.061Z,97783.03
2019-02-10T02:33:21.151Z,97780.20
2019-02-10T02:35:49.165Z,97763.97
2019-02-10T02:38:17.080Z,97760.52
2019-02-10T02:40:45.112Z,97759.58
2019-02-10T02:43:13.143Z,97746.98
2019-02-10T02:45:41.264Z,97744.20
2019-02-10T02:48:09.240Z,97739.28
2019-02-10T02:50:37.462Z,97739.41
2019-02-10T02:53:05.956Z,97737.80
2019-02-10T02:55:34.051Z,97728.89
2019-02-10T02:58:02.044Z,97719.53
2019-02-10T03:00:30.040Z,97711.52
2019-02-10T03:02:58.052Z,97706.70
2019-02-10T03:05:26.052Z,97699.23
2019-02-10T03:07:55.444Z,97689.44
2019-02-10T03:10:24.596Z,97689.75
2019-02-10T03:12:53.822Z,97678.48
2019-02-10T03:15:21.751Z,97673.73
2019-02-10T03:17:49.723Z,97670.49
2019-02-10T03:20:18.733Z,97667.03
2019-02-10T03:22:46.711Z,97657.61
2019-02-10T03:25:15.250Z,97656.34
2019-02-10T03:27:43.200Z,97641.88
2019-02-10T03:30:11.319Z,97628.55
2019-02-10T03:32:39.361Z,97631.67
2019-02-10T03:35:07.354Z,97622.39
2019-02-10T03:37:35.492Z,97618.41
2019-02-10T03:40:03.651Z,97605.04
2019-02-10T03:42:31.603Z,97598.27
2019-02-10T03:44:59.882Z,97589.35
2019-02-10T03:47:27.995Z,97581.52
2019-02-10T03:49:57.097Z,97579.77
2019-02-10T03:52:25.169Z,97578.95
2019-02-10T03:54:53.393Z,97564.65
2019-02-10T03:57:21.405Z,97576.58
2019-02-10T03:59:49.364Z,97555.69
2019-02-10T04:02:17.380Z,97574.21
2019-02-10T04:04:45.505Z,97563.23
2019-02-10T04:07:13.617Z,97563.18
2019-02-10T04:09:41.973Z,97566.20
2019-02-10T04:12:10.113Z,97559.89
2019-02-10T04:14:38.163Z,97562.59
2019-02-10T04:17:06.099Z,97550.23
2019-02-10T04:19:34.086Z,97545.56
2019-02-10T04:22:02.118Z,97524.72
2019-02-10T04:24:30.067Z,97539.98
2019-02-10T04:26:58.052Z,97530.05
2019-02-10T04:29:26.028Z,97518.29
2019-02-10T04:31:54.227Z,97501.40
2019-02-10T04:34:22.333Z,97481.45
2019-02-10T04:36:50.267Z,97481.69
2019-02-10T04:39:18.342Z,97479.25
2019-02-10T04:41:46.326Z,97479.84
2019-02-10T04:44:14.393Z,97485.33
2019-02-10T04:46:42.427Z,97482.88
2019-02-10T04:49:10.926Z,97478.80
2019-02-10T04:51:38.931Z,97482.77
2019-02-10T04:54:07.074Z,97488.13
2019-02-10T04:56:35.130Z,97477.19
2019-02-10T04:59:03.118Z,97477.87
2019-02-10T05:01:31.092Z,97473.90
2019-02-10T05:03:59.091Z,97464.11
2019-02-10T05:06:27.030Z,97456.20
2019-02-10T05:08:56.358Z,97454.09
2019-02-10T05:11:24.506Z,97444.99
2019-02-10T05:13:52.609Z,97445.66
2019-02-10T05:16:20.599Z,97431.56
2019-02-10T05:18:48.693Z,97419.91
2019-02-10T05:21:18.526Z,97420.13
2019-02-10T05:23:46.510Z,97422.55
2019-02-10T05:26:14.549Z,97413.78
2019-02-10T05:28:42.854Z,97416.81
2019-02-10T05:31:10.858Z,97415.60
2019-02-10T05:33:39.101Z,97401.37
2019-02-10T05:36:07.103Z,97393.01
2019-02-10T05:38:35.106Z,97392.88
2019-02-10T05:41:03.059Z,97385.22
2019-02-10T05:43:31.108Z,97374.03
2019-02-10T05:45:59.129Z,97374.36
2019-02-10T05:48:27.337Z,97367.86
2019-02-10T05:50:55.461Z,97373.08
2019-02-10T05:53:23.540Z,97364.27
2019-02-10T05:55:51.917Z,97364.11
2019-02-10T05:58:19.893Z,97365.80
2019-02-10T06:00:48.225Z,97358.45
2019-02-10T06:03:16.258Z,97354.03
2019-02-10T06:05:44.302Z,97350.19
2019-02-10T06:08:13.635Z,97346.79
2019-02-10T06:10:42.405Z,97332.95
2019-02-10T06:13:10.458Z,97328.16
2019-02-10T06:15:38.530Z,97323.15
2019-02-10T06:18:06.798Z,97324.42
2019-02-10T06:20:34.774Z,97313.25
2019-02-10T06:23:02.873Z,97307.31
2019-02-10T06:25:30.821Z,97298.94
2019-02-10T06:27:58.815Z,97299.52
2019-02-10T06:30:26.959Z,97303.16
2019-02-10T06:32:55.007Z,97293.47
2019-02-10T06:35:22.990Z,97295.09
2019-02-10T06:37:51.312Z,97297.57
2019-02-10T06:40:19.452Z,97298.02
2019-02-10T06:42:47.519Z,97297.54
2019-02-10T06:45:15.498Z,97286.95
2019-02-10T06:47:43.826Z,97295.22
2019-02-10T06:50:11.756Z,97300.34
2019-02-10T06:52:40.058Z,97296.73
2019-02-10T06:55:12.221Z,97306.39
2019-02-10T06:57:40.447Z,97304.86
2019-02-10T07:00:30.587Z,97298.44
2019-02-10T07:03:39.451Z,97289.00
2019-02-10T07:06:07.978Z,97282.27
2019-02-10T07:08:35.951Z,97278.05
2019-02-10T07:11:03.938Z,97266.03
2019-02-10T07:13:39.221Z,97257.77
2019-02-10T07:16:54.072Z,97253.70
2019-02-10T07:20:48.691Z,97244.59
2019-02-10T07:23:56.202Z,97252.15
2019-02-10T07:26:53.965Z,97251.44
2019-02-10T07:30:27.238Z,97239.66
2019-02-10T07:32:55.453Z,97213.66
2019-02-10T07:36:14.962Z,97199.89
2019-02-10T07:39:16.246Z,97191.84
2019-02-10T07:42:46.803Z,97182.39
2019-02-10T07:46:04.078Z,97165.56
2019-02-10T07:49:16.950Z,97152.77
2019-02-10T07:52:25.853Z,97145.28
2019-02-10T07:55:10.661Z,97141.73
2019-02-10T07:58:38.533Z,97144.53
2019-02-10T08:01:57.240Z,97133.48
2019-02-10T08:05:02.562Z,97132.39
2019-02-10T08:08:46.556Z,97129.77
2019-02-10T08:11:56.959Z,97119.87
2019-02-10T08:14:54.655Z,97105.89
2019-02-10T08:18:03.874Z,97106.71
2019-02-10T08:21:25.535Z,97088.40
2019-02-10T08:24:48.200Z,97077.31
2019-02-10T08:28:09.046Z,97072.52
2019-02-10T08:31:11.270Z,97069.58
2019-02-10T08:34:07.842Z,97066.55
2019-02-10T08:37:33.278Z,97056.22
2019-02-10T08:41:12.660Z,97058.23
2019-02-10T08:44:14.450Z,97056.38
2019-02-10T08:47:14.119Z,97040.83
2019-02-10T08:50:43.414Z,97033.69
2019-02-10T08:53:23.663Z,97034.69
2019-02-10T08:55:53.355Z,97029.19
2019-02-10T08:58:21.976Z,97024.41
2019-02-10T09:00:51.935Z,97025.42
2019-02-10T09:03:20.193Z,97030.00
2019-02-10T09:05:53.078Z,97029.63
2019-02-10T09:08:21.940Z,97006.13
2019-02-10T09:10:50.311Z,97004.36
2019-02-10T09:13:18.514Z,96988.53
2019-02-10T09:15:48.762Z,96987.87
2019-02-10T09:18:17.646Z,96976.57
2019-02-10T09:20:45.824Z,96956.78
2019-02-10T09:23:13.846Z,96956.77
2019-02-10T09:25:48.499Z,96937.80
2019-02-10T09:28:21.217Z,96935.41
2019-02-10T09:30:49.220Z,96938.45
2019-02-10T09:33:17.559Z,96939.05
2019-02-10T09:35:45.528Z,96935.23
2019-02-10T09:38:13.563Z,96924.45
2019-02-10T09:40:41.948Z,96915.47
2019-02-10T09:43:10.199Z,96909.80
2019-02-10T09:45:38.434Z,96911.80
2019-02-10T09:48:06.953Z,96909.36
2019-02-10T09:50:35.600Z,96893.74
2019-02-10T09:53:04.042Z,96895.84
2019-02-10T09:55:32.221Z,96881.04
2019-02-10T09:58:00.298Z,96884.42
2019-02-10T10:00:28.635Z,96871.05
2019-02-10T10:02:56.844Z,96856.48
2019-02-10T10:05:25.056Z,96848.13
2019-02-10T10:07:53.023Z,96838.16
2019-02-10T10:10:21.112Z,96846.88
2019-02-10T10:12:49.333Z,96838.95
2019-02-10T10:15:17.890Z,96839.73
2019-02-10T10:17:58.695Z,96833.57
2019-02-10T10:20:40.449Z,96824.16
2019-02-10T10:23:09.032Z,96823.11
2019-02-10T10:25:37.843Z,96809.70
2019-02-10T10:28:07.034Z,96800.66
2019-02-10T10:30:37.254Z,96802.75
2019-02-10T10:33:05.780Z,96799.76
2019-02-10T10:35:34.138Z,96790.08
2019-02-10T10:38:02.585Z,96787.72
2019-02-10T10:40:30.704Z,96791.16
2019-02-10T10:42:58.743Z,96776.20
2019-02-10T10:45:26.999Z,96781.47
2019-02-10T10:47:55.050Z,96768.92
2019-02-10T10:50:23.193Z,96767.63
2019-02-10T10:52:51.292Z,96773.34
2019-02-10T10:55:19.364Z,96754.64
2019-02-10T10:57:48.370Z,96749.21
2019-02-10T11:00:22.880Z,96741.44
2019-02-10T11:02:56.394Z,96734.73
2019-02-10T11:05:27.220Z,96718.40
2019-02-10T11:07:56.196Z,96734.38
2019-02-10T11:10:28.043Z,96718.42
2019-02-10T11:12:56.396Z,96712.17
2019-02-10T11:15:24.455Z,96708.50
2019-02-10T11:17:52.691Z,96697.75
2019-02-10T11:20:20.790Z,96695.21
2019-02-10T11:22:49.926Z,96686.82
2019-02-10T11:25:18.132Z,96694.80
2019-02-10T11:27:46.195Z,96680.88
2019-02-10T11:30:14.690Z,96673.42
2019-02-10T11:32:42.780Z,96662.42
2019-02-10T11:35:10.837Z,96663.59
2019-02-10T11:37:38.991Z,96651.27
2019-02-10T11:40:07.200Z,96645.72
2019-02-10T11:42:35.382Z,96643.11
2019-02-10T11:45:03.842Z,96652.47
2019-02-10T11:47:31.911Z,96627.75
2019-02-10T11:49:59.904Z,96630.28
2019-02-10T11:52:28.131Z,96629.84
2019-02-10T11:54:56.225Z,96643.48
2019-02-10T11:57:24.267Z,96615.74
2019-02-10T11:59:52.414Z,96616.77
2019-02-10T12:02:20.615Z,96621.56
2019-02-10T12:04:48.731Z,96600.88
2019-02-10T12:07:16.928Z,96594.98
2019-02-10T12:09:51.543Z,96588.73
2019-02-10T12:12:14.904Z,96585.64
2019-02-10T12:14:43.129Z,96582.80
2019-02-10T12:17:11.234Z,96603.96
2019-02-10T12:19:39.261Z,96557.52
2019-02-10T12:22:07.526Z,96550.67
2019-02-10T12:24:35.545Z,96561.32
2019-02-10T12:27:03.547Z,96551.97
2019-02-10T12:29:31.684Z,96555.22
2019-02-10T12:31:59.782Z,96553.65
2019-02-10T12:34:28.005Z,96565.68
2019-02-10T12:36:57.717Z,96563.31
2019-02-10T12:39:27.644Z,96565.86
2019-02-10T12:41:55.675Z,96557.89
2019-02-10T12:44:23.709Z,96570.77
2019-02-10T12:46:51.693Z,96559.56
2019-02-10T12:49:19.785Z,96582.32
2019-02-10T12:51:48.166Z,96594.25
2019-02-10T12:54:16.143Z,96597.12
2019-02-10T12:56:44.091Z,96608.90
2019-02-10T12:59:12.356Z,96615.26
2019-02-10T13:01:40.464Z,96628.18
2019-02-10T13:04:08.446Z,96608.46
2019-02-10T13:06:36.429Z,96624.69
2019-02-10T13:09:07.207Z,96637.28
2019-02-10T13:11:35.209Z,96626.14
2019-02-10T13:14:03.248Z,96636.98
2019-02-10T13:16:31.416Z,96631.55
2019-02-10T13:18:59.454Z,96604.32
2019-02-10T13:21:27.457Z,96631.21
2019-02-10T13:23:56.113Z,96619.72
2019-02-10T13:26:24.382Z,96613.97
2019-02-10T13:28:52.494Z,96619.45
2019-02-10T13:31:22.189Z,96603.81
2019-02-10T13:33:50.455Z,96610.31
2019-02-10T13:36:20.715Z,96588.81
2019-02-10T13:38:49.140Z,96593.28
2019-02-10T13:41:17.375Z,96584.48
2019-02-10T13:43:45.536Z,96575.02
2019-02-10T13:46:13.866Z,96572.91
2019-02-10T13:48:42.035Z,96571.89
2019-02-10T13:51:10.536Z,96568.91
2019-02-10T13:53:38.552Z,96563.42
2019-02-10T13:56:06.574Z,96552.30
2019-02-10T13:58:36.924Z,96559.91
2019-02-10T14:01:05.204Z,96556.86
2019-02-10T14:03:33.189Z,96547.02
2019-02-10T14:06:01.179Z,96540.42
2019-02-10T14:08:29.431Z,96543.25
2019-02-10T14:10:57.793Z,96541.49
2019-02-10T14:13:25.790Z,96545.65
2019-02-10T14:15:54.245Z,96538.97
2019-02-10T14:18:22.422Z,96554.95
2019-02-10T14:20:50.503Z,96547.67
2019-02-10T14:23:19.119Z,96540.77
2019-02-10T14:25:47.421Z,96540.05
2019-02-10T14:28:15.342Z,96540.95
2019-02-10T14:30:43.909Z,96530.84
2019-02-10T14:33:12.082Z,96538.97
2019-02-10T14:35:40.164Z,96526.20
2019-02-10T14:38:08.508Z,96547.41
2019-02-10T14:40:36.527Z,96537.77
2019-02-10T14:43:04.548Z,96533.58
2019-02-10T14:45:32.616Z,96519.58
2019-02-10T14:48:00.655Z,96519.07
2019-02-10T14:50:29.047Z,96520.39
2019-02-10T14:52:57.626Z,96515.17
2019-02-10T14:55:25.751Z,96524.38
2019-02-10T14:57:53.917Z,96498.56
2019-02-10T15:00:23.913Z,96495.09
2019-02-10T15:02:53.215Z,96491.45
2019-02-10T15:05:21.473Z,96490.64
2019-02-10T15:07:50.572Z,96490.00
2019-02-10T15:10:18.784Z,96496.59
2019-02-10T15:12:46.746Z,96500.82
2019-02-10T15:15:15.091Z,96500.48
2019-02-10T15:17:44.492Z,96499.38
2019-02-10T15:20:14.022Z,96490.08
2019-02-10T15:22:43.119Z,96515.89
2019-02-10T15:25:12.588Z,96524.09
2019-02-10T15:27:40.707Z,96513.23
2019-02-10T15:30:11.741Z,96526.30
2019-02-10T15:32:42.413Z,96531.77
2019-02-10T15:35:11.581Z,96534.93
2019-02-10T15:37:39.800Z,96558.09
2019-02-10T15:40:08.056Z,96565.44
2019-02-10T15:42:37.790Z,96558.96
2019-02-10T15:45:06.948Z,96540.34
2019-02-10T15:47:35.009Z,96549.58
2019-02-10T15:50:03.872Z,96571.14
2019-02-10T15:52:31.954Z,96575.98
2019-02-10T15:55:00.206Z,96592.94
2019-02-10T15:57:28.316Z,96602.17
2019-02-10T15:59:56.565Z,96602.64
2019-02-10T16:02:24.595Z,96608.33
2019-02-10T16:04:52.675Z,96618.28
2019-02-10T16:07:22.005Z,96618.09
2019-02-10T16:09:50.310Z,96625.05
2019-02-10T16:12:18.353Z,96652.73
2019-02-10T16:14:46.395Z,96660.97
2019-02-10T16:17:14.377Z,96671.52
2019-02-10T16:19:42.782Z,96689.03
2019-02-10T16:22:10.913Z,96717.48
2019-02-10T16:24:39.438Z,96732.70
2019-02-10T16:27:07.752Z,96713.80
2019-02-10T16:29:35.958Z,96729.09
2019-02-10T16:32:04.259Z,96723.03
2019-02-10T16:34:32.248Z,96708.13
2019-02-10T16:37:00.277Z,96705.69
2019-02-10T16:39:28.258Z,96704.70
2019-02-10T16:41:56.243Z,96708.16
2019-02-10T16:44:24.326Z,96707.39
2019-02-10T16:46:52.348Z,96725.80
2019-02-10T16:49:20.335Z,96739.13
2019-02-10T16:51:49.395Z,96741.02
2019-02-10T16:54:17.599Z,96760.64
2019-02-10T16:56:46.254Z,96783.78
2019-02-10T16:59:14.430Z,96773.86
2019-02-10T17:01:42.454Z,96775.06
2019-02-10T17:04:10.866Z,96795.20
2019-02-10T17:06:39.015Z,96789.98
2019-02-10T17:09:07.118Z,96754.08
2019-02-10T17:11:36.267Z,96784.70
2019-02-10T17:14:04.528Z,96802.84
2019-02-10T17:16:32.511Z,96820.52
2019-02-10T17:19:00.563Z,96823.39
2019-02-10T17:21:28.874Z,96824.91
2019-02-10T17:23:56.851Z,96831.31
2019-02-10T17:26:24.983Z,96862.30
2019-02-10T17:28:53.253Z,96867.41
2019-02-10T17:31:21.335Z,96858.69
2019-02-10T17:33:50.004Z,96864.97
2019-02-10T17:36:19.131Z,96900.83
2019-02-10T17:38:47.210Z,96920.86
2019-02-10T17:41:22.799Z,96940.55
2019-02-10T17:43:50.739Z,96947.06
2019-02-10T17:46:18.945Z,96936.66
2019-02-10T17:48:47.045Z,96901.03
2019-02-10T17:51:15.042Z,96894.58
2019-02-10T17:53:43.289Z,96888.34
2019-02-10T17:56:11.438Z,96874.32
2019-02-10T17:58:39.713Z,96866.80
2019-02-10T18:01:08.497Z,96884.47
2019-02-10T18:03:36.572Z,96907.06
2019-02-10T18:06:04.658Z,96928.52
2019-02-10T18:08:32.849Z,96929.66
2019-02-10T18:11:00.864Z,96940.00
2019-02-10T18:13:29.080Z,96940.70
2019-02-10T18:16:09.565Z,96960.20
2019-02-10T18:18:56.014Z,96952.55
2019-02-10T18:21:46.398Z,96965.89
2019-02-10T18:24:23.450Z,96964.03
2019-02-10T18:27:02.351Z,96971.09
2019-02-10T18:29:45.164Z,96987.94
2019-02-10T18:32:42.036Z,96989.72
2019-02-10T18:35:16.561Z,96986.26
2019-02-10T18:37:53.402Z,97009.69
2019-02-10T18:40:29.672Z,97015.38
2019-02-10T18:43:17.339Z,97014.20
2019-02-10T18:45:53.844Z,97022.53
2019-02-10T18:48:39.265Z,97034.88
2019-02-10T18:51:20.697Z,97031.60
2019-02-10T18:54:08.304Z,97040.88
2019-02-10T18:56:52.705Z,97040.12
2019-02-10T18:59:29.093Z,97057.70
2019-02-10T19:02:20.899Z,97082.09
2019-02-10T19:05:03.560Z,97093.58
2019-02-10T19:07:54.188Z,97093.45
2019-02-10T19:10:36.037Z,97091.92
2019-02-10T19:13:22.429Z,97088.78
2019-02-10T19:16:08.501Z,97090.47
2019-02-10T19:19:02.113Z,97083.17
2019-02-10T19:21:38.106Z,97112.57
2019-02-10T19:24:28.662Z,97103.64
2019-02-10T19:27:15.911Z,97108.16
2019-02-10T19:30:09.649Z,97110.16
2019-02-10T19:32:44.270Z,97128.51
2019-02-10T19:35:32.490Z,97125.59
2019-02-10T19:38:20.032Z,97123.47
2019-02-10T19:41:10.970Z,97112.59
2019-02-10T19:43:57.040Z,97119.34
2019-02-10T19:46:35.243Z,97109.59
2019-02-10T19:49:28.644Z,97119.19
2019-02-10T19:52:14.923Z,97111.44
2019-02-10T19:54:52.969Z,97113.41
2019-02-10T19:57:39.349Z,97109.20
2019-02-10T20:00:27.031Z,97107.65
2019-02-10T20:03:05.212Z,97107.21
2019-02-10T20:05:51.088Z,97119.78
2019-02-10T20:08:37.141Z,97113.19
2019-02-10T20:11:23.464Z,97115.30
2019-02-10T20:14:20.786Z,97120.70
2019-02-10T20:17:05.059Z,97114.34
2019-02-10T20:19:47.192Z,97098.92
2019-02-10T20:22:37.739Z,97105.68
2019-02-10T20:25:31.428Z,97107.05
2019-02-10T20:28:37.412Z,97103.95
2019-02-10T20:31:20.867Z,97122.97
2019-02-10T20:33:58.001Z,97110.78
2019-02-10T20:36:49.959Z,97120.04
2019-02-10T20:39:24.515Z,97125.88
2019-02-10T20:42:13.003Z,97139.23
2019-02-10T20:45:01.248Z,97154.95
2019-02-10T20:47:49.278Z,97164.38
2019-02-10T20:50:26.643Z,97163.88
2019-02-10T20:53:26.414Z,97168.05
2019-02-10T20:56:12.227Z,97182.83
2019-02-10T20:58:46.294Z,97178.84
2019-02-10T21:01:32.616Z,97197.63
2019-02-10T21:04:31.785Z,97201.09
2019-02-10T21:07:17.777Z,97210.46
2019-02-10T21:10:04.077Z,97212.84
2019-02-10T21:12:54.635Z,97219.32
2019-02-10T21:15:44.955Z,97232.06
2019-02-10T21:18:35.762Z,97252.52
2019-02-10T21:21:21.591Z,97254.00
2019-02-10T21:24:12.245Z,97248.96
2019-02-10T21:27:11.919Z,97255.63
2019-02-10T21:30:02.334Z,97269.39
2019-02-10T21:32:53.311Z,97268.06
2019-02-10T21:35:30.623Z,97268.44
2019-02-10T21:38:14.654Z,97264.70
2019-02-10T21:41:08.049Z,97284.56
2019-02-10T21:43:55.071Z,97304.28
2019-02-10T21:46:32.826Z,97319.25
2019-02-10T21:49:07.088Z,97330.17
2019-02-10T21:51:35.287Z,97333.31
2019-02-10T21:54:03.674Z,97335.95
2019-02-10T21:56:31.756Z,97331.84
2019-02-10T21:58:59.770Z,97335.61
2019-02-10T22:01:27.887Z,97332.78
2019-02-10T22:03:56.144Z,97332.95
2019-02-10T22:06:24.171Z,97329.57
2019-02-10T22:08:52.307Z,97325.56
2019-02-10T22:11:20.613Z,97325.78
2019-02-10T22:13:48.770Z,97326.03
2019-02-10T22:16:16.778Z,97335.95
2019-02-10T22:18:44.737Z,97345.10
2019-02-10T22:21:12.873Z,97342.59
2019-02-10T22:23:40.950Z,97361.59
2019-02-10T22:26:09.205Z,97354.96
2019-02-10T22:28:37.285Z,97357.71
2019-02-10T22:31:05.409Z,97352.73
2019-02-10T22:33:33.682Z,97354.63
2019-02-10T22:36:01.674Z,97350.84
2019-02-10T22:38:29.728Z,97341.94
2019-02-10T22:40:57.696Z,97359.50
2019-02-10T22:43:25.708Z,97342.31
2019-02-10T22:45:54.091Z,97345.94
2019-02-10T22:48:22.213Z,97345.48
2019-02-10T22:50:50.228Z,97359.88
2019-02-10T22:53:18.297Z,97360.58
2019-02-10T22:55:46.272Z,97364.03
2019-02-10T22:58:14.239Z,97367.46
2019-02-10T23:00:56.474Z,97376.47
2019-02-10T23:03:24.648Z,97372.64
2019-02-10T23:05:52.659Z,97386.47
2019-02-10T23:08:20.662Z,97383.47
2019-02-10T23:10:48.719Z,97397.84
2019-02-10T23:13:16.668Z,97411.63
2019-02-10T23:15:44.693Z,97419.90
2019-02-10T23:18:12.668Z,97423.19
2019-02-10T23:20:41.692Z,97429.41
2019-02-10T23:23:09.668Z,97431.50
2019-02-10T23:25:38.172Z,97428.87
2019-02-10T23:28:06.385Z,97434.22
2019-02-10T23:30:34.329Z,97451.09
2019-02-10T23:33:02.365Z,97460.03
2019-02-10T23:35:30.365Z,97463.28
2019-02-10T23:38:01.303Z,97466.75
2019-02-10T23:40:29.366Z,97468.39
2019-02-10T23:43:02.052Z,97469.50
2019-02-10T23:45:27.513Z,97472.50
2019-02-10T23:47:55.606Z,97488.24
2019-02-10T23:50:23.685Z,97485.83
2019-02-10T23:52:51.752Z,97490.67
2019-02-10T23:55:19.937Z,97492.78
2019-02-10T23:57:47.990Z,97502.05
